Time;durP1;ratioP1;P1;durP2;ratioP2;P2;SDS_P1;SDS_P2;PMS_P1;PMS_P2;Temp;Humidity;BMP_temperature;BMP_pressure;BME280_temperature;BME280_humidity;BME280_pressure;Samples;Min_cycle;Max_cycle;Signal;HPM_P1;HPM_P2
2021/12/24 00:01:08;;;;;;;31.55;15.93;;;6.10;99.90;;;;;;4986362;28;19921;-67
2021/12/24 00:03:34;;;;;;;37.60;17.80;;;6.20;99.90;;;;;;4988102;28;20046;-66
2021/12/24 00:06:00;;;;;;;35.67;16.67;;;6.20;99.90;;;;;;4989151;28;20109;-66
2021/12/24 00:08:26;;;;;;;32.38;15.80;;;6.20;99.90;;;;;;4986774;28;20746;-67
2021/12/24 00:10:59;;;;;;;36.28;17.30;;;6.20;99.90;;;;;;4989357;28;20042;-67
2021/12/24 00:13:26;;;;;;;34.47;17.48;;;6.20;99.90;;;;;;4985372;28;20054;-66
2021/12/24 00:16:02;;;;;;;40.83;17.77;;;6.20;99.90;;;;;;4988396;28;20510;-67
2021/12/24 00:18:40;;;;;;;31.80;15.68;;;6.20;99.90;;;;;;4980859;28;20043;-67
2021/12/24 00:35:17;;;;;;;25.95;14.15;;;6.50;99.90;;;;;;4988102;28;20050;-67
2021/12/24 00:37:45;;;;;;;28.40;14.80;;;6.30;99.90;;;;;;4971389;28;20375;-67
2021/12/24 00:40:17;;;;;;;29.88;15.30;;;6.40;99.90;;;;;;4986903;28;20487;-67
2021/12/24 00:42:45;;;;;;;33.22;15.80;;;6.30;99.90;;;;;;4986895;28;20042;-67
2021/12/24 00:45:13;;;;;;;27.20;14.68;;;6.40;99.90;;;;;;4987738;28;20058;-67
2021/12/24 00:47:39;;;;;;;24.70;13.90;;;6.40;99.90;;;;;;4970500;28;20101;-67
2021/12/24 00:50:09;;;;;;;24.63;13.13;;;6.40;99.90;;;;;;4988421;28;20050;-66
2021/12/24 00:52:49;;;;;;;25.63;13.45;;;6.40;99.90;;;;;;4986207;28;20129;-66
2021/12/24 00:55:21;;;;;;;22.38;13.38;;;6.50;99.90;;;;;;4986882;28;20089;-67
2021/12/24 00:57:53;;;;;;;27.58;14.18;;;6.50;99.90;;;;;;4987726;28;20386;-67
2021/12/24 01:00:29;;;;;;;26.10;13.75;;;6.50;99.90;;;;;;4986983;28;20077;-67
2021/12/24 01:02:56;;;;;;;;;;;6.50;99.90;;;;;;4989193;28;20069;-66
2021/12/24 01:05:24;;;;;;;24.98;13.77;;;6.50;99.90;;;;;;4987608;28;20004;-67
2021/12/24 01:07:50;;;;;;;25.02;13.32;;;6.50;99.90;;;;;;4969876;28;20046;-67
2021/12/24 01:10:19;;;;;;;25.17;12.70;;;6.60;99.90;;;;;;4985362;28;20042;-67
2021/12/24 01:12:45;;;;;;;22.05;12.00;;;6.50;99.90;;;;;;4987256;28;20089;-66
2021/12/24 01:15:13;;;;;;;22.75;11.63;;;6.50;99.90;;;;;;4987596;28;20431;-67
2021/12/24 01:17:46;;;;;;;20.25;11.40;;;6.50;99.90;;;;;;4986332;28;20121;-66
2021/12/24 01:20:24;;;;;;;20.15;11.25;;;6.50;99.90;;;;;;4971076;28;20449;-66
2021/12/24 01:25:30;;;;;;;22.75;10.70;;;6.60;99.90;;;;;;4989103;28;20109;-66
2021/12/24 01:38:24;;;;;;;17.20;9.80;;;6.70;99.90;;;;;;4975221;28;20042;-66
2021/12/24 01:43:23;;;;;;;18.77;10.57;;;6.70;99.90;;;;;;4989891;28;20392;-66
2021/12/24 01:45:51;;;;;;;20.23;10.85;;;6.80;99.90;;;;;;4989737;28;20042;-66
2021/12/24 01:48:17;;;;;;;20.67;10.20;;;6.80;99.90;;;;;;4991068;28;20092;-66
2021/12/24 01:50:47;;;;;;;19.17;10.05;;;6.80;99.90;;;;;;4989662;28;20081;-66
2021/12/24 01:53:16;;;;;;;19.85;9.55;;;6.80;99.90;;;;;;4990125;28;20398;-66
2021/12/24 01:55:42;;;;;;;16.23;8.32;;;6.80;99.90;;;;;;4990118;28;20050;-66
2021/12/24 01:58:08;;;;;;;17.45;8.95;;;6.80;99.90;;;;;;4990487;28;20158;-66
2021/12/24 02:00:55;;;;;;;14.15;8.55;;;6.90;99.90;;;;;;4989992;28;20216;-66
2021/12/24 02:03:21;;;;;;;15.90;8.32;;;6.90;99.90;;;;;;4990755;28;20096;-66
2021/12/24 02:05:48;;;;;;;15.68;8.13;;;6.90;99.90;;;;;;4989917;28;20096;-66
2021/12/24 02:08:15;;;;;;;13.80;7.80;;;6.90;99.90;;;;;;4987823;28;20043;-66
2021/12/24 02:10:41;;;;;;;12.95;7.47;;;7.00;99.90;;;;;;4990702;28;20053;-66
2021/12/24 02:13:07;;;;;;;11.60;6.97;;;7.00;99.90;;;;;;4988429;28;20056;-66
2021/12/24 02:16:00;;;;;;;12.70;7.30;;;7.00;99.90;;;;;;4990453;28;20098;-66
2021/12/24 02:28:19;;;;;;;11.05;6.90;;;7.10;99.90;;;;;;4979427;28;20090;-66
2021/12/24 02:29:16;;;;;;;11.38;6.93;;;7.20;99.90;;;;;;4972092;28;20082;-66
2021/12/24 02:31:43;;;;;;;11.75;7.25;;;7.20;99.90;;;;;;4991190;28;20077;-66
2021/12/24 02:34:09;;;;;;;12.93;7.05;;;7.20;99.90;;;;;;4988509;28;20046;-66
2021/12/24 02:36:34;;;;;;;12.60;7.38;;;7.30;99.90;;;;;;4988293;28;20056;-66
2021/12/24 02:39:00;;;;;;;13.02;7.65;;;7.20;99.90;;;;;;4988965;28;20128;-66
2021/12/24 02:41:26;;;;;;;13.75;7.95;;;7.30;99.90;;;;;;4988048;28;20058;-66
2021/12/24 02:43:52;;;;;;;13.63;7.75;;;7.30;99.90;;;;;;4990162;28;20042;-66
2021/12/24 02:49:14;;;;;;;13.25;7.85;;;7.30;99.90;;;;;;4980980;28;20070;-66
2021/12/24 02:54:24;;;;;;;15.65;8.13;;;7.40;99.90;;;;;;4988605;28;20479;-68
2021/12/24 02:56:57;;;;;;;16.70;7.82;;;7.40;99.90;;;;;;4986109;28;20229;-68
2021/12/24 02:59:27;;;;;;;15.70;8.35;;;7.40;99.90;;;;;;4979455;28;20494;-68
2021/12/24 03:01:54;;;;;;;17.13;8.70;;;7.40;99.90;;;;;;4989821;28;20050;-68
2021/12/24 03:04:20;;;;;;;15.73;8.70;;;7.40;99.90;;;;;;4988582;28;20047;-66
2021/12/24 03:06:49;;;;;;;17.80;8.48;;;7.40;99.90;;;;;;4989468;28;20096;-66
2021/12/24 03:09:17;;;;;;;19.55;8.45;;;7.40;99.90;;;;;;4971538;28;20061;-66
2021/12/24 03:11:44;;;;;;;18.15;8.45;;;7.40;99.90;;;;;;4973461;28;20038;-66
2021/12/24 03:14:15;;;;;;;18.75;9.13;;;7.50;99.90;;;;;;4984198;28;20065;-66
2021/12/24 03:16:43;;;;;;;20.52;9.23;;;7.60;99.90;;;;;;4988839;28;20042;-66
2021/12/24 03:19:09;;;;;;;16.65;9.57;;;7.60;99.90;;;;;;4987884;28;20050;-66
2021/12/24 03:21:45;;;;;;;20.00;9.48;;;7.60;99.90;;;;;;4989528;28;20390;-66
2021/12/24 03:26:39;;;;;;;23.35;9.93;;;7.60;99.90;;;;;;4987536;28;20042;-66
2021/12/24 03:29:07;;;;;;;24.08;10.35;;;7.60;99.90;;;;;;4989636;28;20132;-66
2021/12/24 03:31:34;;;;;;;29.58;11.32;;;7.70;99.90;;;;;;4987962;28;20042;-66
2021/12/24 03:34:00;;;;;;;28.70;10.73;;;7.70;99.90;;;;;;4989766;28;20100;-66
2021/12/24 03:36:27;;;;;;;35.13;11.93;;;7.70;99.90;;;;;;4986860;28;20046;-65
2021/12/24 03:38:53;;;;;;;36.75;13.15;;;7.90;99.90;;;;;;4987206;28;20442;-66
2021/12/24 03:41:20;;;;;;;39.65;13.38;;;7.80;99.90;;;;;;4988364;28;20054;-66
2021/12/24 03:43:46;;;;;;;37.03;12.68;;;7.80;99.90;;;;;;4989246;28;20490;-66
2021/12/24 03:46:18;;;;;;;38.90;12.55;;;7.80;99.90;;;;;;4987522;28;20439;-66
2021/12/24 03:48:57;;;;;;;44.13;13.75;;;7.80;99.90;;;;;;4987698;28;20046;-66
2021/12/24 03:51:33;;;;;;;42.05;13.57;;;7.90;99.90;;;;;;4989084;28;20631;-66
2021/12/24 03:56:44;;;;;;;43.95;13.57;;;7.90;99.90;;;;;;4973671;28;20478;-66
2021/12/24 03:59:10;;;;;;;58.72;15.35;;;8.00;99.90;;;;;;4985427;28;20149;-66
2021/12/24 04:01:37;;;;;;;56.63;15.23;;;7.90;99.90;;;;;;4986981;28;20050;-66
2021/12/24 04:04:04;;;;;;;56.50;17.65;;;8.00;99.90;;;;;;4988160;28;20085;-66
2021/12/24 04:06:30;;;;;;;72.45;17.50;;;8.00;99.90;;;;;;4987729;28;20060;-66
2021/12/24 04:08:55;;;;;;;59.10;15.30;;;8.70;99.90;;;;;;4988425;28;20047;-66
2021/12/24 04:11:21;;;;;;;75.50;18.23;;;8.20;99.90;;;;;;4970468;28;20134;-66
2021/12/24 04:13:47;;;;;;;72.80;18.90;;;8.20;99.90;;;;;;4987606;28;20048;-66
2021/12/24 04:16:12;;;;;;;75.40;19.00;;;8.20;99.90;;;;;;4989127;28;20120;-66
2021/12/24 04:18:51;;;;;;;64.22;16.73;;;8.20;99.90;;;;;;4989141;28;20521;-66
2021/12/24 04:26:45;;;;;;;58.65;16.92;;;8.20;99.90;;;;;;4988846;28;20046;-66
2021/12/24 04:29:11;;;;;;;59.78;16.40;;;8.20;99.90;;;;;;4987888;28;20101;-66
2021/12/24 04:31:44;;;;;;;52.15;15.77;;;8.50;99.90;;;;;;4988747;28;20447;-66
2021/12/24 04:34:11;;;;;;;48.40;15.38;;;8.30;99.90;;;;;;4986658;28;20042;-66
2021/12/24 04:37:06;;;;;;;43.78;14.50;;;8.30;99.90;;;;;;4980418;28;20125;-67
2021/12/24 05:01:24;;;;;;;61.53;20.35;;;8.50;99.90;;;;;;4992860;28;20046;-66
2021/12/24 05:03:50;;;;;;;63.58;21.20;;;8.60;99.90;;;;;;4989637;28;20054;-66
2021/12/24 05:06:30;;;;;;;63.65;24.15;;;8.70;99.90;;;;;;4990228;28;20034;-66
2021/12/24 05:09:06;;;;;;;58.65;22.85;;;8.70;99.90;;;;;;4990187;28;20065;-66
2021/12/24 05:11:32;;;;;;;59.20;21.92;;;8.70;99.90;;;;;;4989205;28;20058;-66
2021/12/24 05:13:57;;;;;;;61.03;23.73;;;8.70;99.90;;;;;;4991984;28;20038;-66
2021/12/24 05:16:26;;;;;;;68.20;25.10;;;8.70;99.90;;;;;;4990851;28;20424;-66
2021/12/24 05:21:33;;;;;;;58.42;22.23;;;8.80;99.90;;;;;;4990932;28;20593;-66
2021/12/24 05:24:06;;;;;;;44.72;18.13;;;8.80;99.90;;;;;;4989840;28;20046;-66
2021/12/24 05:26:33;;;;;;;48.53;21.98;;;8.80;99.90;;;;;;4991032;28;20517;-66
2021/12/24 05:28:59;;;;;;;55.05;23.23;;;8.80;99.90;;;;;;4990495;28;20058;-66
2021/12/24 05:31:25;;;;;;;63.55;25.08;;;8.80;99.90;;;;;;4990620;28;20046;-66
2021/12/24 05:33:51;;;;;;;60.72;25.17;;;8.80;99.90;;;;;;4991739;28;20129;-66
2021/12/24 05:36:17;;;;;;;59.55;25.70;;;8.80;99.90;;;;;;4990365;28;20054;-67
2021/12/24 05:38:43;;;;;;;62.20;24.40;;;8.80;99.90;;;;;;4984903;28;20053;-66
2021/12/24 05:41:09;;;;;;;53.75;23.60;;;8.90;99.90;;;;;;4986327;28;20112;-66
2021/12/24 05:43:35;;;;;;;57.05;24.73;;;8.90;99.90;;;;;;4991067;28;20046;-66
2021/12/24 05:46:01;;;;;;;58.50;25.23;;;8.90;99.90;;;;;;4982146;28;20501;-66
2021/12/24 05:48:26;;;;;;;50.08;21.65;;;8.80;99.90;;;;;;4971579;28;20051;-66
2021/12/24 05:50:52;;;;;;;60.15;22.65;;;8.90;99.90;;;;;;4984279;28;20263;-66
2021/12/24 05:53:18;;;;;;;51.53;21.15;;;8.90;99.90;;;;;;4988356;28;20046;-66
2021/12/24 05:55:43;;;;;;;50.13;20.27;;;8.90;99.90;;;;;;4992241;28;20065;-66
2021/12/24 05:58:09;;;;;;;43.70;17.00;;;8.90;99.90;;;;;;4991290;28;20129;-66
2021/12/24 06:00:38;;;;;;;40.47;17.58;;;9.00;99.90;;;;;;4988656;28;20459;-66
2021/12/24 06:03:06;;;;;;;43.63;17.75;;;8.90;99.90;;;;;;4989335;28;20057;-66
2021/12/24 06:05:32;;;;;;;44.13;18.23;;;9.00;99.90;;;;;;4989292;28;20050;-66
2021/12/24 06:07:58;;;;;;;38.55;16.00;;;8.90;99.90;;;;;;4989244;28;20050;-66
2021/12/24 06:10:23;;;;;;;41.95;16.45;;;9.00;99.90;;;;;;4990303;28;20328;-66
2021/12/24 06:12:49;;;;;;;44.40;17.00;;;8.90;99.90;;;;;;4987465;28;20055;-66
2021/12/24 06:15:23;;;;;;;37.45;16.38;;;8.90;99.90;;;;;;4992076;28;20034;-66
2021/12/24 06:17:51;;;;;;;43.75;15.82;;;9.60;99.90;;;;;;4989641;28;20069;-66
2021/12/24 06:20:17;;;;;;;41.58;14.25;;;9.00;99.90;;;;;;4989161;28;20085;-67
2021/12/24 06:22:43;;;;;;;36.10;14.32;;;8.90;99.90;;;;;;4990063;28;20086;-66
2021/12/24 06:25:08;;;;;;;38.42;14.20;;;9.00;99.90;;;;;;5005829;28;20112;-66
2021/12/24 06:27:34;;;;;;;37.78;15.35;;;9.00;99.90;;;;;;4988400;28;20054;-66
2021/12/24 06:30:00;;;;;;;41.15;12.50;;;8.90;99.90;;;;;;4988468;28;20053;-66
2021/12/24 06:32:26;;;;;;;44.58;14.50;;;8.90;99.90;;;;;;4990404;28;20057;-66
2021/12/24 06:34:51;;;;;;;35.25;14.77;;;8.90;99.90;;;;;;4989622;28;20034;-66
2021/12/24 06:37:17;;;;;;;46.15;15.30;;;8.90;99.90;;;;;;4988868;28;20050;-66
2021/12/24 06:39:43;;;;;;;36.33;15.18;;;8.90;99.90;;;;;;4992463;28;20375;-66
2021/12/24 06:42:09;;;;;;;30.27;10.32;;;8.80;99.90;;;;;;4990389;28;20100;-66
2021/12/24 06:44:34;;;;;;;33.65;12.85;;;8.80;99.90;;;;;;4987880;28;20046;-66
2021/12/24 06:47:00;;;;;;;28.90;12.10;;;8.90;99.90;;;;;;4990964;28;20169;-67
2021/12/24 06:49:26;;;;;;;29.50;10.75;;;8.90;99.90;;;;;;4989222;28;20042;-67
2021/12/24 06:51:52;;;;;;;31.40;12.40;;;8.90;99.90;;;;;;4987916;28;20049;-67
2021/12/24 06:54:17;;;;;;;34.25;10.75;;;8.90;99.90;;;;;;4987879;28;20109;-67
2021/12/24 06:56:44;;;;;;;32.67;11.73;;;8.90;99.90;;;;;;4988732;28;20046;-67
2021/12/24 06:59:10;;;;;;;31.60;11.73;;;8.90;99.90;;;;;;4990431;28;20043;-67
2021/12/24 07:01:35;;;;;;;35.67;12.13;;;8.90;99.90;;;;;;4971853;28;20068;-67
2021/12/24 07:04:01;;;;;;;35.72;11.70;;;8.80;99.90;;;;;;4987255;28;20048;-67
2021/12/24 07:06:28;;;;;;;39.88;14.05;;;8.90;99.90;;;;;;4987728;28;20482;-67
2021/12/24 07:08:54;;;;;;;35.50;12.93;;;8.80;99.90;;;;;;4988423;28;20038;-67
2021/12/24 07:11:20;;;;;;;35.45;12.32;;;8.80;99.90;;;;;;4986957;28;20046;-67
2021/12/24 07:13:46;;;;;;;30.52;11.82;;;8.90;99.90;;;;;;4988744;28;20042;-67
2021/12/24 07:16:12;;;;;;;32.55;12.68;;;8.90;99.90;;;;;;4987544;28;20046;-67
2021/12/24 07:18:38;;;;;;;27.42;12.13;;;8.80;99.90;;;;;;4989784;28;20487;-67
2021/12/24 07:21:04;;;;;;;34.08;13.35;;;8.90;99.90;;;;;;4989009;28;20094;-67
2021/12/24 07:23:30;;;;;;;31.10;12.82;;;8.80;99.90;;;;;;4987480;28;20096;-66
2021/12/24 07:25:56;;;;;;;28.35;12.77;;;8.80;99.90;;;;;;4989900;28;20074;-67
2021/12/24 07:28:22;;;;;;;25.75;11.85;;;8.80;99.90;;;;;;4986665;28;20093;-67
2021/12/24 07:30:47;;;;;;;28.40;12.75;;;8.80;99.90;;;;;;4987074;28;20054;-67
2021/12/24 07:33:14;;;;;;;22.48;10.70;;;8.80;99.90;;;;;;4988605;28;20140;-67
2021/12/24 07:35:42;;;;;;;23.85;10.13;;;8.80;99.90;;;;;;4983250;28;20124;-67
2021/12/24 07:38:09;;;;;;;21.77;9.70;;;8.80;99.90;;;;;;4988022;28;20537;-67
2021/12/24 07:40:36;;;;;;;23.25;9.38;;;8.80;99.90;;;;;;4989511;28;20042;-67
2021/12/24 07:43:02;;;;;;;25.00;9.30;;;8.80;99.90;;;;;;4988568;28;20065;-67
2021/12/24 07:45:28;;;;;;;14.90;7.57;;;8.70;99.90;;;;;;4988347;28;20189;-67
2021/12/24 07:48:10;;;;;;;18.98;7.45;;;8.70;99.90;;;;;;4991224;28;20547;-67
2021/12/24 07:53:08;;;;;;;13.57;6.90;;;8.70;99.90;;;;;;4987427;28;20424;-67
2021/12/24 07:55:35;;;;;;;15.02;7.25;;;8.70;99.90;;;;;;4987693;28;20065;-67
2021/12/24 07:58:01;;;;;;;19.10;8.00;;;8.70;99.90;;;;;;4986393;28;20501;-67
2021/12/24 08:00:27;;;;;;;15.00;7.40;;;8.70;99.90;;;;;;4989396;28;20352;-68
2021/12/24 08:02:57;;;;;;;18.85;7.88;;;8.70;99.90;;;;;;4989200;28;20046;-67
2021/12/24 08:05:25;;;;;;;14.45;7.53;;;8.70;99.90;;;;;;4987999;28;20050;-67
2021/12/24 08:07:52;;;;;;;17.38;7.55;;;9.00;99.90;;;;;;4988724;28;20042;-67
2021/12/24 08:10:19;;;;;;;21.50;8.65;;;8.70;99.90;;;;;;4991023;28;20073;-68
2021/12/24 08:12:45;;;;;;;15.77;7.97;;;8.70;99.90;;;;;;4989578;28;20042;-67
2021/12/24 08:15:10;;;;;;;16.88;7.47;;;8.70;99.90;;;;;;4987301;28;20570;-68
2021/12/24 08:17:37;;;;;;;19.95;8.45;;;8.70;99.90;;;;;;4986284;28;20050;-67
2021/12/24 08:20:08;;;;;;;21.13;9.35;;;8.70;99.90;;;;;;4988786;28;20070;-67
2021/12/24 08:22:34;;;;;;;20.42;9.18;;;8.70;99.90;;;;;;4988503;28;20050;-67
2021/12/24 08:25:00;;;;;;;19.25;8.93;;;8.60;99.90;;;;;;4987934;28;20042;-68
2021/12/24 08:27:26;;;;;;;17.95;8.05;;;8.60;99.90;;;;;;4987421;28;20042;-67
2021/12/24 08:29:52;;;;;;;20.25;8.98;;;8.70;99.90;;;;;;4987471;28;20142;-67
2021/12/24 08:32:18;;;;;;;24.73;9.20;;;8.70;99.90;;;;;;4988213;28;20054;-68
2021/12/24 08:34:44;;;;;;;22.00;8.98;;;8.60;99.90;;;;;;4990031;28;20177;-67
2021/12/24 08:37:10;;;;;;;17.92;8.80;;;8.60;99.90;;;;;;4986232;28;20061;-67
2021/12/24 08:39:36;;;;;;;18.15;7.90;;;8.60;99.90;;;;;;4972244;28;20181;-67
2021/12/24 08:42:02;;;;;;;20.42;8.73;;;8.60;99.90;;;;;;4985941;28;20038;-68
2021/12/24 08:44:31;;;;;;;19.23;8.20;;;8.60;99.90;;;;;;4991258;28;20046;-67
2021/12/24 08:47:01;;;;;;;20.65;8.43;;;8.60;99.90;;;;;;4992294;28;20081;-67
2021/12/24 08:49:27;;;;;;;28.20;8.98;;;8.60;99.90;;;;;;4991013;28;20378;-68
2021/12/24 08:51:54;;;;;;;25.60;8.95;;;8.60;99.90;;;;;;4990469;28;20178;-68
2021/12/24 08:54:21;;;;;;;21.88;8.27;;;8.60;99.90;;;;;;4990719;28;20335;-68
2021/12/24 08:56:48;;;;;;;22.90;8.95;;;8.70;99.90;;;;;;4989335;28;20401;-67
2021/12/24 08:59:14;;;;;;;24.02;9.02;;;8.60;99.90;;;;;;4954551;28;20043;-67
2021/12/24 09:01:42;;;;;;;21.00;8.48;;;9.00;99.90;;;;;;4973016;28;20395;-67
2021/12/24 09:04:09;;;;;;;25.90;8.52;;;8.60;99.90;;;;;;4992320;28;20038;-68
2021/12/24 09:06:35;;;;;;;27.15;8.98;;;8.60;99.90;;;;;;4973604;28;20054;-68
2021/12/24 09:09:01;;;;;;;34.50;9.05;;;8.60;99.90;;;;;;4992033;28;20046;-67
2021/12/24 09:11:26;;;;;;;22.98;9.02;;;8.60;99.90;;;;;;4990544;28;20050;-67
2021/12/24 09:13:52;;;;;;;27.15;8.75;;;8.60;99.90;;;;;;4986809;28;20157;-68
2021/12/24 09:16:18;;;;;;;22.38;8.52;;;8.60;99.90;;;;;;4970738;28;20086;-68
2021/12/24 09:18:44;;;;;;;26.02;9.05;;;8.60;99.90;;;;;;4984169;28;20505;-67
2021/12/24 09:21:15;;;;;;;23.70;8.80;;;8.60;99.90;;;;;;4981276;28;20059;-68
2021/12/24 09:23:46;;;;;;;26.23;7.78;;;8.60;99.90;;;;;;4955827;28;20050;-68
2021/12/24 09:26:12;;;;;;;22.90;8.13;;;8.50;99.90;;;;;;4972081;28;20447;-68
2021/12/24 09:28:38;;;;;;;21.17;8.20;;;8.60;99.90;;;;;;4972759;28;20427;-68
2021/12/24 09:31:03;;;;;;;20.08;7.63;;;8.50;99.90;;;;;;4971491;28;20046;-67
2021/12/24 09:33:29;;;;;;;22.90;8.13;;;8.50;99.90;;;;;;4973340;28;20056;-68
2021/12/24 09:35:55;;;;;;;7.60;4.72;;;8.50;99.90;;;;;;4990451;28;20483;-66
2021/12/24 09:38:20;;;;;;;5.57;3.38;;;8.60;99.90;;;;;;4988369;28;20486;-67
2021/12/24 09:40:46;;;;;;;4.57;3.00;;;8.80;99.90;;;;;;4991624;28;20082;-67
2021/12/24 09:43:12;;;;;;;6.22;3.33;;;8.20;99.90;;;;;;4990348;28;20443;-67
2021/12/24 09:45:37;;;;;;;4.80;3.20;;;8.30;99.90;;;;;;4988659;28;20490;-67
2021/12/24 09:48:03;;;;;;;5.53;3.10;;;7.90;99.90;;;;;;4989402;28;20067;-67
2021/12/24 09:50:29;;;;;;;4.57;3.25;;;7.80;99.90;;;;;;4989692;28;20077;-67
2021/12/24 09:52:55;;;;;;;5.25;3.50;;;7.70;99.90;;;;;;4988760;28;20050;-67
2021/12/24 09:55:27;;;;;;;5.03;3.70;;;7.60;99.90;;;;;;4990176;28;20100;-68
2021/12/24 09:57:53;;;;;;;4.93;3.50;;;7.60;99.90;;;;;;4985152;28;20066;-67
2021/12/24 10:00:22;;;;;;;5.15;3.80;;;7.50;99.90;;;;;;4971464;28;20054;-67
2021/12/24 10:02:51;;;;;;;5.55;3.92;;;7.50;99.90;;;;;;4970785;28;20483;-67
2021/12/24 10:05:37;;;;;;;5.03;3.60;;;7.50;99.90;;;;;;4975482;28;20038;-67
2021/12/24 10:08:11;;;;;;;5.20;3.70;;;7.50;99.90;;;;;;4989078;28;20109;-66
2021/12/24 10:10:41;;;;;;;5.15;3.83;;;7.50;99.90;;;;;;4988780;28;20162;-66
2021/12/24 10:13:29;;;;;;;5.95;3.35;;;7.40;99.90;;;;;;4990204;28;20051;-68
2021/12/24 10:15:55;;;;;;;5.47;3.75;;;7.50;99.90;;;;;;4991569;28;20042;-65
2021/12/24 10:18:33;;;;;;;7.00;3.65;;;7.50;99.90;;;;;;4986157;28;20514;-66
2021/12/24 10:21:00;;;;;;;4.65;3.42;;;7.50;99.90;;;;;;4992188;28;20055;-67
2021/12/24 10:23:44;;;;;;;8.13;3.83;;;7.50;99.90;;;;;;4988089;28;20046;-66
2021/12/24 10:26:23;;;;;;;4.80;3.22;;;7.50;99.90;;;;;;4970381;28;20063;-67
2021/12/24 10:29:08;;;;;;;4.40;3.10;;;7.50;99.90;;;;;;4970979;28;20134;-67
2021/12/24 10:31:48;;;;;;;5.13;2.90;;;7.50;99.90;;;;;;4988710;28;20048;-66
2021/12/24 10:34:28;;;;;;;3.38;2.50;;;7.40;99.90;;;;;;4988394;28;20050;-67
2021/12/24 10:37:03;;;;;;;4.60;3.25;;;7.50;99.90;;;;;;4985191;28;20058;-67
2021/12/24 10:39:32;;;;;;;5.45;2.97;;;7.50;99.90;;;;;;4986968;28;20073;-66
2021/12/24 10:42:00;;;;;;;4.35;2.92;;;7.40;99.90;;;;;;4989987;28;20047;-66
2021/12/24 10:44:31;;;;;;;4.30;2.90;;;7.50;99.90;;;;;;4988362;28;20050;-66
2021/12/24 10:47:08;;;;;;;4.93;3.30;;;7.40;99.90;;;;;;4987550;28;20196;-66
2021/12/24 10:54:56;;;;;;;4.80;3.55;;;7.40;99.90;;;;;;4988854;28;20054;-66
2021/12/24 10:57:25;;;;;;;4.82;3.47;;;7.40;99.90;;;;;;4987669;28;20051;-66
2021/12/24 10:59:54;;;;;;;5.18;3.67;;;7.30;99.90;;;;;;4987996;28;20442;-66
2021/12/24 11:02:23;;;;;;;4.55;3.53;;;7.30;99.90;;;;;;4989564;28;20035;-66
2021/12/24 11:04:51;;;;;;;4.95;3.72;;;7.30;99.90;;;;;;4988191;28;20133;-65
2021/12/24 11:07:33;;;;;;;5.32;3.67;;;7.20;99.90;;;;;;4987180;28;20045;-66
2021/12/24 11:10:14;;;;;;;5.50;3.70;;;7.20;99.90;;;;;;4989233;28;20050;-66
2021/12/24 11:12:43;;;;;;;5.10;3.70;;;7.10;99.90;;;;;;4987590;28;20580;-65
2021/12/24 11:15:33;;;;;;;10.93;3.17;;;7.10;99.90;;;;;;4976847;28;20054;-65
2021/12/24 11:18:34;;;;;;;5.53;3.35;;;7.10;99.90;;;;;;4972703;28;20050;-65
2021/12/24 11:21:07;;;;;;;5.70;3.35;;;7.10;99.90;;;;;;4974702;28;20058;-66
2021/12/24 11:23:39;;;;;;;5.10;3.30;;;7.00;99.90;;;;;;4987456;28;20108;-65
2021/12/24 11:26:11;;;;;;;5.25;3.50;;;7.00;99.90;;;;;;4990998;28;20046;-65
2021/12/24 11:28:38;;;;;;;7.47;3.53;;;7.00;99.90;;;;;;4970158;28;20042;-65
2021/12/24 11:31:07;;;;;;;5.40;3.50;;;7.00;99.90;;;;;;4988058;28;20062;-67
2021/12/24 11:33:35;;;;;;;6.43;3.33;;;7.00;99.90;;;;;;4987926;28;20596;-66
2021/12/24 11:36:03;;;;;;;4.63;3.40;;;7.00;99.90;;;;;;4987143;28;20082;-66
2021/12/24 11:38:36;;;;;;;4.90;3.50;;;7.00;99.90;;;;;;4987898;28;20478;-67
2021/12/24 11:41:03;;;;;;;5.05;3.33;;;7.00;99.90;;;;;;4988903;28;20050;-67
2021/12/24 11:43:33;;;;;;;4.72;3.20;;;7.00;99.90;;;;;;4986475;28;20130;-66
2021/12/24 11:46:01;;;;;;;5.38;3.17;;;7.00;99.90;;;;;;4989250;28;20372;-66
2021/12/24 11:48:31;;;;;;;5.50;3.33;;;7.10;99.90;;;;;;4969449;28;20042;-66
2021/12/24 11:50:58;;;;;;;4.90;3.30;;;7.60;99.90;;;;;;4988760;28;20042;-66
2021/12/24 11:53:25;;;;;;;4.82;3.00;;;6.90;99.90;;;;;;4985536;28;20078;-66
2021/12/24 11:55:51;;;;;;;5.10;3.17;;;6.90;99.90;;;;;;4988994;28;20375;-66
2021/12/24 11:58:19;;;;;;;4.93;3.42;;;6.90;99.90;;;;;;4989427;28;20042;-67
2021/12/24 12:00:52;;;;;;;5.75;3.70;;;6.80;99.90;;;;;;4988617;28;20038;-67
2021/12/24 12:03:33;;;;;;;4.72;3.40;;;6.80;99.90;;;;;;4987445;28;20387;-68
2021/12/24 12:06:00;;;;;;;5.38;3.20;;;6.80;99.90;;;;;;4988228;28;20129;-68
2021/12/24 12:08:25;;;;;;;4.68;3.28;;;6.70;99.90;;;;;;4988089;28;20046;-68
2021/12/24 12:10:54;;;;;;;6.43;3.13;;;6.70;99.90;;;;;;4985803;28;20487;-68
2021/12/24 12:13:54;;;;;;;4.75;3.33;;;6.70;99.90;;;;;;4986449;28;20058;-68
2021/12/24 12:16:25;;;;;;;4.63;3.30;;;6.70;99.90;;;;;;4968167;28;20062;-69
2021/12/24 12:22:19;;;;;;;5.15;3.58;;;6.80;99.90;;;;;;4976527;28;20090;-68
2021/12/24 12:24:59;;;;;;;5.78;3.50;;;6.80;99.90;;;;;;4986772;28;20517;-69
2021/12/24 12:27:51;;;;;;;4.95;3.60;;;6.70;99.90;;;;;;4969955;28;20045;-69
2021/12/24 12:30:17;;;;;;;5.68;3.72;;;6.80;99.90;;;;;;4986538;28;20073;-69
2021/12/24 12:32:43;;;;;;;4.95;3.38;;;6.80;99.90;;;;;;4986497;28;20439;-68
2021/12/24 12:35:09;;;;;;;6.00;3.47;;;6.80;99.90;;;;;;4989274;28;20050;-68
2021/12/24 12:37:53;;;;;;;4.97;3.67;;;6.80;99.90;;;;;;4985632;28;20572;-69
2021/12/24 12:40:19;;;;;;;7.53;3.80;;;6.80;99.90;;;;;;4988771;28;20533;-69
2021/12/24 12:42:51;;;;;;;5.40;3.67;;;6.80;99.90;;;;;;4988669;28;20134;-68
2021/12/24 12:45:20;;;;;;;7.07;3.97;;;6.90;99.90;;;;;;4987436;28;20525;-69
2021/12/24 12:47:57;;;;;;;6.55;4.10;;;6.80;99.90;;;;;;4987713;28;20070;-68
2021/12/24 12:50:24;;;;;;;6.00;3.95;;;6.90;99.90;;;;;;4986973;28;20148;-68
2021/12/24 12:52:53;;;;;;;5.68;3.75;;;7.20;99.90;;;;;;4985801;28;20521;-68
2021/12/24 12:55:33;;;;;;;5.15;3.63;;;7.00;99.90;;;;;;4988442;28;20046;-68
2021/12/24 12:58:18;;;;;;;6.07;3.60;;;7.10;99.90;;;;;;4987630;28;20043;-68
2021/12/24 13:01:10;;;;;;;5.38;3.90;;;7.10;99.90;;;;;;4987520;28;20407;-68
2021/12/24 13:03:58;;;;;;;6.18;3.58;;;7.10;99.90;;;;;;4988401;28;20046;-68
2021/12/24 13:06:42;;;;;;;6.53;4.00;;;7.10;99.90;;;;;;4985475;28;20090;-68
2021/12/24 13:09:22;;;;;;;5.10;3.65;;;7.20;99.90;;;;;;4986313;28;20050;-68
2021/12/24 13:11:53;;;;;;;6.03;3.80;;;7.20;99.90;;;;;;4986803;28;20406;-68
2021/12/24 13:14:21;;;;;;;6.20;4.10;;;7.20;99.90;;;;;;4985820;28;20344;-68
2021/12/24 13:16:52;;;;;;;5.93;3.72;;;7.20;99.90;;;;;;4986796;28;20050;-68
2021/12/24 13:19:28;;;;;;;6.25;3.75;;;7.10;99.90;;;;;;4986543;28;20142;-67
2021/12/24 13:24:59;;;;;;;5.68;3.97;;;7.20;99.90;;;;;;4988467;28;20542;-68
2021/12/24 13:27:32;;;;;;;5.45;4.13;;;7.20;99.90;;;;;;4986230;28;20054;-67
2021/12/24 13:30:03;;;;;;;6.13;4.25;;;7.20;99.90;;;;;;4991031;28;20064;-67
2021/12/24 13:32:29;;;;;;;6.30;4.30;;;7.20;99.90;;;;;;4990505;28;20077;-67
2021/12/24 13:34:55;;;;;;;5.43;3.95;;;7.30;99.90;;;;;;5002781;28;20420;-69
2021/12/24 13:37:21;;;;;;;7.25;3.90;;;7.30;99.90;;;;;;4982556;28;20050;-72
2021/12/24 13:39:50;;;;;;;6.05;4.32;;;7.30;99.90;;;;;;4985187;28;20406;-70
2021/12/24 13:42:17;;;;;;;5.78;3.92;;;7.40;99.90;;;;;;4984584;28;20050;-70
2021/12/24 13:44:43;;;;;;;6.65;4.30;;;7.40;99.90;;;;;;4986637;28;20050;-69
2021/12/24 13:47:22;;;;;;;5.88;4.38;;;7.40;99.90;;;;;;4981596;28;20069;-66
2021/12/24 13:55:23;;;;;;;7.03;3.97;;;7.30;99.90;;;;;;4980601;28;20459;-66
2021/12/24 13:57:59;;;;;;;5.50;3.85;;;7.20;99.90;;;;;;4980811;28;20050;-66
2021/12/24 14:00:26;;;;;;;6.18;4.03;;;7.20;99.90;;;;;;4975828;28;20046;-66
2021/12/24 14:02:57;;;;;;;6.10;4.20;;;7.20;99.90;;;;;;4984922;28;20444;-66
2021/12/24 14:05:24;;;;;;;6.35;3.90;;;7.20;99.90;;;;;;4971352;28;20058;-66
2021/12/24 14:08:12;;;;;;;7.75;4.50;;;7.30;99.90;;;;;;4980889;28;20057;-70
2021/12/24 14:10:39;;;;;;;8.55;4.15;;;7.90;99.90;;;;;;4968837;28;20399;-67
2021/12/24 14:13:18;;;;;;;6.20;4.13;;;7.20;99.90;;;;;;4984554;28;20046;-67
2021/12/24 14:16:30;;;;;;;6.05;3.92;;;7.20;99.90;;;;;;4972213;28;20739;-67
2021/12/24 14:18:52;;;;;;;6.20;3.65;;;7.10;99.90;;;;;;4985057;28;20050;-67
2021/12/24 14:24:14;;;;;;;5.07;3.70;;;7.10;99.90;;;;;;4979650;28;20410;-69
2021/12/24 14:26:51;;;;;;;6.43;3.30;;;7.10;99.90;;;;;;4986046;28;20070;-69
2021/12/24 14:29:30;;;;;;;5.55;3.22;;;7.10;99.90;;;;;;4982939;28;20816;-71
2021/12/24 14:31:58;;;;;;;4.75;3.03;;;7.10;99.90;;;;;;4974412;28;20129;-69
2021/12/24 14:34:43;;;;;;;5.93;3.45;;;7.10;99.90;;;;;;4984253;28;20042;-69
2021/12/24 14:37:20;;;;;;;5.05;2.92;;;7.20;99.90;;;;;;4982512;28;20050;-69
2021/12/24 14:39:50;;;;;;;6.60;3.22;;;7.10;99.90;;;;;;4986748;28;20317;-68
2021/12/24 14:42:22;;;;;;;4.40;2.60;;;7.10;99.90;;;;;;4985910;28;20499;-69